sensor_id;sensor_type;location;lat;lon;timestamp;P1;durP1;ratioP1;P2;durP2;ratioP2
19343;SDS011;9808;52.402;16.678;2022-11-18T00:02:14;39.53;;;21.20;;
19343;SDS011;9808;52.402;16.678;2022-11-18T00:04:41;41.97;;;21.37;;
19343;SDS011;9808;52.402;16.678;2022-11-18T00:07:08;39.73;;;21.13;;
19343;SDS011;9808;52.402;16.678;2022-11-18T00:09:34;40.27;;;21.23;;
19343;SDS011;9808;52.402;16.678;2022-11-18T00:12:01;45.63;;;20.60;;
19343;SDS011;9808;52.402;16.678;2022-11-18T00:14:46;37.93;;;20.27;;
19343;SDS011;9808;52.402;16.678;2022-11-18T00:17:13;39.57;;;20.03;;
19343;SDS011;9808;52.402;16.678;2022-11-18T00:19:40;39.37;;;19.90;;
19343;SDS011;9808;52.402;16.678;2022-11-18T00:22:08;38.23;;;20.30;;
19343;SDS011;9808;52.402;16.678;2022-11-18T00:24:37;39.00;;;19.80;;
19343;SDS011;9808;52.402;16.678;2022-11-18T00:27:04;38.70;;;19.80;;
19343;SDS011;9808;52.402;16.678;2022-11-18T00:29:31;37.57;;;19.97;;
19343;SDS011;9808;52.402;16.678;2022-11-18T00:31:58;38.33;;;19.87;;
19343;SDS011;9808;52.402;16.678;2022-11-18T00:34:25;38.37;;;19.40;;
19343;SDS011;9808;52.402;16.678;2022-11-18T00:36:52;37.13;;;19.00;;
19343;SDS011;9808;52.402;16.678;2022-11-18T00:39:19;36.93;;;19.53;;
19343;SDS011;9808;52.402;16.678;2022-11-18T00:41:46;38.93;;;20.03;;
19343;SDS011;9808;52.402;16.678;2022-11-18T00:44:34;36.80;;;19.53;;
19343;SDS011;9808;52.402;16.678;2022-11-18T00:47:01;36.03;;;19.00;;
19343;SDS011;9808;52.402;16.678;2022-11-18T00:49:28;36.20;;;19.00;;
19343;SDS011;9808;52.402;16.678;2022-11-18T00:51:55;37.70;;;19.27;;
19343;SDS011;9808;52.402;16.678;2022-11-18T00:54:21;35.93;;;18.80;;
19343;SDS011;9808;52.402;16.678;2022-11-18T00:56:48;34.53;;;18.93;;
19343;SDS011;9808;52.402;16.678;2022-11-18T00:59:15;34.63;;;18.47;;
19343;SDS011;9808;52.402;16.678;2022-11-18T01:01:42;40.77;;;19.40;;
19343;SDS011;9808;52.402;16.678;2022-11-18T01:04:10;38.60;;;19.90;;
19343;SDS011;9808;52.402;16.678;2022-11-18T01:06:37;34.07;;;18.77;;
19343;SDS011;9808;52.402;16.678;2022-11-18T01:09:03;33.30;;;18.83;;
19343;SDS011;9808;52.402;16.678;2022-11-18T01:11:31;34.00;;;19.00;;
19343;SDS011;9808;52.402;16.678;2022-11-18T01:14:17;33.67;;;18.23;;
19343;SDS011;9808;52.402;16.678;2022-11-18T01:16:44;34.07;;;17.93;;
19343;SDS011;9808;52.402;16.678;2022-11-18T01:19:16;35.63;;;18.37;;
19343;SDS011;9808;52.402;16.678;2022-11-18T01:21:44;34.80;;;19.93;;
19343;SDS011;9808;52.402;16.678;2022-11-18T01:24:11;36.43;;;19.50;;
19343;SDS011;9808;52.402;16.678;2022-11-18T01:26:38;36.07;;;19.23;;
19343;SDS011;9808;52.402;16.678;2022-11-18T01:29:04;36.27;;;19.53;;
19343;SDS011;9808;52.402;16.678;2022-11-18T01:31:32;35.87;;;19.97;;
19343;SDS011;9808;52.402;16.678;2022-11-18T01:33:58;35.57;;;18.83;;
19343;SDS011;9808;52.402;16.678;2022-11-18T01:36:25;37.80;;;20.20;;
19343;SDS011;9808;52.402;16.678;2022-11-18T01:38:53;37.37;;;19.50;;
19343;SDS011;9808;52.402;16.678;2022-11-18T01:41:22;42.87;;;19.80;;
19343;SDS011;9808;52.402;16.678;2022-11-18T01:43:58;42.40;;;21.80;;
19343;SDS011;9808;52.402;16.678;2022-11-18T01:46:28;37.63;;;19.87;;
19343;SDS011;9808;52.402;16.678;2022-11-18T01:49:06;41.10;;;21.07;;
19343;SDS011;9808;52.402;16.678;2022-11-18T01:51:38;39.97;;;20.43;;
19343;SDS011;9808;52.402;16.678;2022-11-18T01:54:13;37.33;;;19.77;;
19343;SDS011;9808;52.402;16.678;2022-11-18T01:56:47;37.80;;;19.07;;
19343;SDS011;9808;52.402;16.678;2022-11-18T01:59:18;35.07;;;18.40;;
19343;SDS011;9808;52.402;16.678;2022-11-18T02:01:48;35.53;;;17.83;;
19343;SDS011;9808;52.402;16.678;2022-11-18T02:04:19;37.87;;;17.83;;
19343;SDS011;9808;52.402;16.678;2022-11-18T02:06:46;33.80;;;17.73;;
19343;SDS011;9808;52.402;16.678;2022-11-18T02:09:14;33.27;;;17.47;;
19343;SDS011;9808;52.402;16.678;2022-11-18T02:11:42;32.97;;;16.70;;
19343;SDS011;9808;52.402;16.678;2022-11-18T02:14:23;32.03;;;16.50;;
19343;SDS011;9808;52.402;16.678;2022-11-18T02:31:40;34.63;;;17.13;;
19343;SDS011;9808;52.402;16.678;2022-11-18T02:37:22;36.23;;;18.20;;
19343;SDS011;9808;52.402;16.678;2022-11-18T02:40:10;34.90;;;17.60;;
19343;SDS011;9808;52.402;16.678;2022-11-18T02:42:40;33.03;;;16.43;;
19343;SDS011;9808;52.402;16.678;2022-11-18T02:45:11;33.07;;;17.63;;
19343;SDS011;9808;52.402;16.678;2022-11-18T02:47:42;32.60;;;17.60;;
19343;SDS011;9808;52.402;16.678;2022-11-18T02:50:13;32.07;;;16.27;;
19343;SDS011;9808;52.402;16.678;2022-11-18T02:52:44;34.23;;;17.70;;
19343;SDS011;9808;52.402;16.678;2022-11-18T02:55:12;37.07;;;17.13;;
19343;SDS011;9808;52.402;16.678;2022-11-18T02:57:42;33.23;;;17.63;;
19343;SDS011;9808;52.402;16.678;2022-11-18T03:00:11;29.80;;;16.50;;
19343;SDS011;9808;52.402;16.678;2022-11-18T03:02:47;29.17;;;15.60;;
19343;SDS011;9808;52.402;16.678;2022-11-18T03:05:17;29.77;;;15.53;;
19343;SDS011;9808;52.402;16.678;2022-11-18T03:07:56;32.20;;;16.10;;
19343;SDS011;9808;52.402;16.678;2022-11-18T03:10:34;30.80;;;15.20;;
19343;SDS011;9808;52.402;16.678;2022-11-18T03:13:10;28.00;;;15.13;;
19343;SDS011;9808;52.402;16.678;2022-11-18T03:18:27;29.27;;;16.77;;
19343;SDS011;9808;52.402;16.678;2022-11-18T03:21:21;33.63;;;16.53;;
19343;SDS011;9808;52.402;16.678;2022-11-18T03:23:58;31.20;;;15.87;;
19343;SDS011;9808;52.402;16.678;2022-11-18T03:26:41;32.33;;;17.00;;
19343;SDS011;9808;52.402;16.678;2022-11-18T03:29:18;32.40;;;16.30;;
19343;SDS011;9808;52.402;16.678;2022-11-18T03:31:49;34.00;;;17.13;;
19343;SDS011;9808;52.402;16.678;2022-11-18T03:34:23;31.90;;;15.50;;
19343;SDS011;9808;52.402;16.678;2022-11-18T03:37:00;32.20;;;15.73;;
19343;SDS011;9808;52.402;16.678;2022-11-18T03:39:36;31.00;;;15.27;;
19343;SDS011;9808;52.402;16.678;2022-11-18T03:42:08;34.63;;;16.40;;
19343;SDS011;9808;52.402;16.678;2022-11-18T03:44:40;33.83;;;16.67;;
19343;SDS011;9808;52.402;16.678;2022-11-18T03:47:25;32.13;;;15.30;;
19343;SDS011;9808;52.402;16.678;2022-11-18T03:49:59;37.90;;;16.57;;
19343;SDS011;9808;52.402;16.678;2022-11-18T03:52:37;34.57;;;17.43;;
19343;SDS011;9808;52.402;16.678;2022-11-18T03:55:08;37.07;;;17.97;;
19343;SDS011;9808;52.402;16.678;2022-11-18T04:00:13;36.70;;;17.70;;
19343;SDS011;9808;52.402;16.678;2022-11-18T04:02:42;35.97;;;18.00;;
19343;SDS011;9808;52.402;16.678;2022-11-18T04:05:10;35.13;;;16.67;;
19343;SDS011;9808;52.402;16.678;2022-11-18T04:07:53;38.27;;;18.23;;
19343;SDS011;9808;52.402;16.678;2022-11-18T04:10:30;35.43;;;17.43;;
19343;SDS011;9808;52.402;16.678;2022-11-18T04:13:17;37.30;;;17.27;;
19343;SDS011;9808;52.402;16.678;2022-11-18T04:15:50;36.70;;;18.57;;
19343;SDS011;9808;52.402;16.678;2022-11-18T04:18:18;38.40;;;18.60;;
19343;SDS011;9808;52.402;16.678;2022-11-18T04:20:45;41.70;;;18.87;;
19343;SDS011;9808;52.402;16.678;2022-11-18T04:23:12;39.63;;;19.23;;
19343;SDS011;9808;52.402;16.678;2022-11-18T04:25:39;40.77;;;20.80;;
19343;SDS011;9808;52.402;16.678;2022-11-18T04:28:06;38.17;;;19.07;;
19343;SDS011;9808;52.402;16.678;2022-11-18T04:30:33;43.27;;;18.97;;
19343;SDS011;9808;52.402;16.678;2022-11-18T04:33:00;40.50;;;19.33;;
19343;SDS011;9808;52.402;16.678;2022-11-18T04:35:27;38.03;;;18.90;;
19343;SDS011;9808;52.402;16.678;2022-11-18T04:37:54;36.40;;;18.00;;
19343;SDS011;9808;52.402;16.678;2022-11-18T04:40:21;39.70;;;20.40;;
19343;SDS011;9808;52.402;16.678;2022-11-18T04:42:48;37.00;;;18.47;;
19343;SDS011;9808;52.402;16.678;2022-11-18T04:45:14;37.43;;;18.10;;
19343;SDS011;9808;52.402;16.678;2022-11-18T04:47:41;37.50;;;18.67;;
19343;SDS011;9808;52.402;16.678;2022-11-18T04:50:08;39.73;;;19.37;;
19343;SDS011;9808;52.402;16.678;2022-11-18T04:52:35;38.67;;;19.00;;
19343;SDS011;9808;52.402;16.678;2022-11-18T04:55:02;41.90;;;20.00;;
19343;SDS011;9808;52.402;16.678;2022-11-18T04:57:29;39.40;;;18.40;;
19343;SDS011;9808;52.402;16.678;2022-11-18T04:59:55;42.73;;;19.03;;
19343;SDS011;9808;52.402;16.678;2022-11-18T05:02:22;35.90;;;17.63;;
19343;SDS011;9808;52.402;16.678;2022-11-18T05:04:49;37.17;;;18.90;;
19343;SDS011;9808;52.402;16.678;2022-11-18T05:07:15;37.27;;;19.07;;
19343;SDS011;9808;52.402;16.678;2022-11-18T05:09:42;40.73;;;19.23;;
19343;SDS011;9808;52.402;16.678;2022-11-18T05:12:12;38.93;;;18.10;;
19343;SDS011;9808;52.402;16.678;2022-11-18T05:14:58;41.13;;;19.30;;
19343;SDS011;9808;52.402;16.678;2022-11-18T05:17:26;38.87;;;17.83;;
19343;SDS011;9808;52.402;16.678;2022-11-18T05:19:53;38.70;;;17.97;;
19343;SDS011;9808;52.402;16.678;2022-11-18T05:22:20;36.63;;;17.57;;
19343;SDS011;9808;52.402;16.678;2022-11-18T05:24:47;39.70;;;19.57;;
19343;SDS011;9808;52.402;16.678;2022-11-18T05:27:14;38.33;;;18.37;;
19343;SDS011;9808;52.402;16.678;2022-11-18T05:29:41;37.27;;;18.40;;
19343;SDS011;9808;52.402;16.678;2022-11-18T05:32:08;37.67;;;17.20;;
19343;SDS011;9808;52.402;16.678;2022-11-18T05:34:34;34.97;;;17.70;;
19343;SDS011;9808;52.402;16.678;2022-11-18T05:37:01;40.70;;;18.80;;
19343;SDS011;9808;52.402;16.678;2022-11-18T05:39:28;37.47;;;17.67;;
19343;SDS011;9808;52.402;16.678;2022-11-18T05:41:55;40.43;;;18.27;;
19343;SDS011;9808;52.402;16.678;2022-11-18T05:44:41;36.00;;;18.20;;
19343;SDS011;9808;52.402;16.678;2022-11-18T05:47:08;42.17;;;18.93;;
19343;SDS011;9808;52.402;16.678;2022-11-18T05:49:35;39.97;;;18.83;;
19343;SDS011;9808;52.402;16.678;2022-11-18T05:52:02;41.13;;;17.60;;
19343;SDS011;9808;52.402;16.678;2022-11-18T05:54:29;40.03;;;18.40;;
19343;SDS011;9808;52.402;16.678;2022-11-18T05:56:56;36.60;;;18.30;;
19343;SDS011;9808;52.402;16.678;2022-11-18T05:59:23;37.13;;;17.43;;
19343;SDS011;9808;52.402;16.678;2022-11-18T06:01:52;36.20;;;17.33;;
19343;SDS011;9808;52.402;16.678;2022-11-18T06:04:29;35.13;;;17.30;;
19343;SDS011;9808;52.402;16.678;2022-11-18T06:07:12;44.50;;;16.83;;
19343;SDS011;9808;52.402;16.678;2022-11-18T06:09:46;36.27;;;16.97;;
19343;SDS011;9808;52.402;16.678;2022-11-18T06:12:16;39.80;;;18.00;;
19343;SDS011;9808;52.402;16.678;2022-11-18T06:14:48;34.17;;;18.23;;
19343;SDS011;9808;52.402;16.678;2022-11-18T06:17:26;41.93;;;19.83;;
19343;SDS011;9808;52.402;16.678;2022-11-18T06:19:59;37.47;;;18.57;;
19343;SDS011;9808;52.402;16.678;2022-11-18T06:22:27;39.60;;;18.93;;
19343;SDS011;9808;52.402;16.678;2022-11-18T06:24:54;38.67;;;19.43;;
19343;SDS011;9808;52.402;16.678;2022-11-18T06:27:21;41.03;;;19.97;;
19343;SDS011;9808;52.402;16.678;2022-11-18T06:29:48;42.07;;;19.80;;
19343;SDS011;9808;52.402;16.678;2022-11-18T06:32:15;46.23;;;19.87;;
19343;SDS011;9808;52.402;16.678;2022-11-18T06:34:41;42.27;;;20.40;;
19343;SDS011;9808;52.402;16.678;2022-11-18T06:37:15;43.67;;;20.83;;
19343;SDS011;9808;52.402;16.678;2022-11-18T06:39:43;46.17;;;21.83;;
19343;SDS011;9808;52.402;16.678;2022-11-18T06:42:10;42.87;;;22.13;;
19343;SDS011;9808;52.402;16.678;2022-11-18T06:44:57;47.10;;;21.93;;
19343;SDS011;9808;52.402;16.678;2022-11-18T06:47:24;40.97;;;20.70;;
19343;SDS011;9808;52.402;16.678;2022-11-18T06:49:50;44.17;;;21.40;;
19343;SDS011;9808;52.402;16.678;2022-11-18T06:52:17;52.97;;;21.97;;
19343;SDS011;9808;52.402;16.678;2022-11-18T06:54:44;43.10;;;21.17;;
19343;SDS011;9808;52.402;16.678;2022-11-18T06:57:11;41.50;;;19.37;;
19343;SDS011;9808;52.402;16.678;2022-11-18T06:59:37;37.80;;;19.20;;
19343;SDS011;9808;52.402;16.678;2022-11-18T07:02:05;45.20;;;20.53;;
19343;SDS011;9808;52.402;16.678;2022-11-18T07:04:32;41.10;;;19.70;;
19343;SDS011;9808;52.402;16.678;2022-11-18T07:06:59;41.83;;;18.17;;
19343;SDS011;9808;52.402;16.678;2022-11-18T07:09:26;38.50;;;18.37;;
19343;SDS011;9808;52.402;16.678;2022-11-18T07:11:53;40.70;;;18.83;;
19343;SDS011;9808;52.402;16.678;2022-11-18T07:14:20;37.50;;;17.97;;
19343;SDS011;9808;52.402;16.678;2022-11-18T07:16:47;44.77;;;17.43;;
19343;SDS011;9808;52.402;16.678;2022-11-18T07:19:14;35.30;;;16.47;;
19343;SDS011;9808;52.402;16.678;2022-11-18T07:21:41;32.00;;;15.30;;
19343;SDS011;9808;52.402;16.678;2022-11-18T07:24:10;29.40;;;14.20;;
19343;SDS011;9808;52.402;16.678;2022-11-18T07:26:38;28.10;;;14.37;;
19343;SDS011;9808;52.402;16.678;2022-11-18T07:29:05;32.37;;;14.90;;
19343;SDS011;9808;52.402;16.678;2022-11-18T07:31:32;30.93;;;14.23;;
19343;SDS011;9808;52.402;16.678;2022-11-18T07:34:02;32.00;;;13.67;;
19343;SDS011;9808;52.402;16.678;2022-11-18T07:36:29;29.83;;;13.77;;
19343;SDS011;9808;52.402;16.678;2022-11-18T07:39:02;23.13;;;12.93;;
19343;SDS011;9808;52.402;16.678;2022-11-18T07:41:32;26.03;;;12.73;;
19343;SDS011;9808;52.402;16.678;2022-11-18T07:44:01;28.07;;;13.60;;
19343;SDS011;9808;52.402;16.678;2022-11-18T07:46:30;29.27;;;13.60;;
19343;SDS011;9808;52.402;16.678;2022-11-18T07:48:59;26.90;;;12.57;;
19343;SDS011;9808;52.402;16.678;2022-11-18T07:51:28;28.23;;;13.63;;
19343;SDS011;9808;52.402;16.678;2022-11-18T07:53:57;28.47;;;13.73;;
19343;SDS011;9808;52.402;16.678;2022-11-18T07:56:24;30.10;;;14.80;;
19343;SDS011;9808;52.402;16.678;2022-11-18T07:58:53;25.13;;;13.43;;
19343;SDS011;9808;52.402;16.678;2022-11-18T08:01:24;27.70;;;13.27;;
19343;SDS011;9808;52.402;16.678;2022-11-18T08:03:57;26.10;;;13.13;;
19343;SDS011;9808;52.402;16.678;2022-11-18T08:06:30;28.13;;;14.00;;
19343;SDS011;9808;52.402;16.678;2022-11-18T08:08:59;26.97;;;13.23;;
19343;SDS011;9808;52.402;16.678;2022-11-18T08:11:26;26.53;;;12.37;;
19343;SDS011;9808;52.402;16.678;2022-11-18T08:13:52;25.47;;;12.70;;
19343;SDS011;9808;52.402;16.678;2022-11-18T08:16:20;24.23;;;12.33;;
19343;SDS011;9808;52.402;16.678;2022-11-18T08:18:48;24.23;;;12.27;;
19343;SDS011;9808;52.402;16.678;2022-11-18T08:21:17;24.90;;;11.80;;
19343;SDS011;9808;52.402;16.678;2022-11-18T08:23:48;23.10;;;11.20;;
19343;SDS011;9808;52.402;16.678;2022-11-18T08:26:16;24.43;;;11.27;;
19343;SDS011;9808;52.402;16.678;2022-11-18T08:28:44;27.93;;;11.37;;
19343;SDS011;9808;52.402;16.678;2022-11-18T08:33:53;21.47;;;11.27;;
19343;SDS011;9808;52.402;16.678;2022-11-18T08:36:25;23.63;;;10.53;;
19343;SDS011;9808;52.402;16.678;2022-11-18T08:38:54;21.57;;;10.70;;
19343;SDS011;9808;52.402;16.678;2022-11-18T08:41:32;24.37;;;10.80;;
19343;SDS011;9808;52.402;16.678;2022-11-18T08:44:00;18.90;;;9.70;;
19343;SDS011;9808;52.402;16.678;2022-11-18T08:46:28;17.97;;;8.43;;
19343;SDS011;9808;52.402;16.678;2022-11-18T08:48:55;13.83;;;7.40;;
19343;SDS011;9808;52.402;16.678;2022-11-18T08:51:22;14.40;;;6.53;;
19343;SDS011;9808;52.402;16.678;2022-11-18T08:53:49;13.73;;;7.20;;
19343;SDS011;9808;52.402;16.678;2022-11-18T08:56:17;11.70;;;6.50;;
19343;SDS011;9808;52.402;16.678;2022-11-18T08:58:46;11.40;;;5.87;;
19343;SDS011;9808;52.402;16.678;2022-11-18T09:01:12;12.50;;;6.87;;
19343;SDS011;9808;52.402;16.678;2022-11-18T09:03:39;10.80;;;5.50;;
19343;SDS011;9808;52.402;16.678;2022-11-18T09:06:10;14.17;;;6.03;;
19343;SDS011;9808;52.402;16.678;2022-11-18T09:08:49;11.60;;;6.17;;
19343;SDS011;9808;52.402;16.678;2022-11-18T09:11:17;14.07;;;6.80;;
19343;SDS011;9808;52.402;16.678;2022-11-18T09:13:46;13.07;;;6.10;;
19343;SDS011;9808;52.402;16.678;2022-11-18T09:16:36;14.37;;;6.77;;
19343;SDS011;9808;52.402;16.678;2022-11-18T09:19:03;11.87;;;6.07;;
19343;SDS011;9808;52.402;16.678;2022-11-18T09:21:50;13.13;;;5.73;;
19343;SDS011;9808;52.402;16.678;2022-11-18T09:24:17;10.80;;;5.97;;
19343;SDS011;9808;52.402;16.678;2022-11-18T09:26:44;12.60;;;5.90;;
19343;SDS011;9808;52.402;16.678;2022-11-18T09:29:11;11.93;;;5.47;;
19343;SDS011;9808;52.402;16.678;2022-11-18T09:31:38;10.60;;;4.80;;
19343;SDS011;9808;52.402;16.678;2022-11-18T09:34:04;9.43;;;5.50;;
19343;SDS011;9808;52.402;16.678;2022-11-18T09:36:31;9.30;;;4.83;;
19343;SDS011;9808;52.402;16.678;2022-11-18T09:38:58;11.00;;;4.77;;
19343;SDS011;9808;52.402;16.678;2022-11-18T09:41:35;10.73;;;5.30;;
19343;SDS011;9808;52.402;16.678;2022-11-18T09:49:44;13.67;;;5.13;;
19343;SDS011;9808;52.402;16.678;2022-11-18T09:52:15;9.37;;;4.60;;
19343;SDS011;9808;52.402;16.678;2022-11-18T09:55:03;9.17;;;4.93;;
19343;SDS011;9808;52.402;16.678;2022-11-18T09:57:42;10.00;;;4.97;;
19343;SDS011;9808;52.402;16.678;2022-11-18T10:05:41;11.73;;;5.00;;
19343;SDS011;9808;52.402;16.678;2022-11-18T10:10:58;8.77;;;4.80;;
19343;SDS011;9808;52.402;16.678;2022-11-18T10:16:22;9.80;;;4.70;;
19343;SDS011;9808;52.402;16.678;2022-11-18T10:24:26;9.90;;;4.50;;
19343;SDS011;9808;52.402;16.678;2022-11-18T10:27:00;8.43;;;4.23;;
19343;SDS011;9808;52.402;16.678;2022-11-18T10:29:27;9.43;;;4.73;;
19343;SDS011;9808;52.402;16.678;2022-11-18T10:32:02;14.77;;;5.17;;
19343;SDS011;9808;52.402;16.678;2022-11-18T10:34:30;8.20;;;3.93;;
19343;SDS011;9808;52.402;16.678;2022-11-18T10:36:59;8.50;;;4.40;;
19343;SDS011;9808;52.402;16.678;2022-11-18T10:39:31;10.10;;;4.33;;
19343;SDS011;9808;52.402;16.678;2022-11-18T10:42:00;10.10;;;4.63;;
19343;SDS011;9808;52.402;16.678;2022-11-18T10:44:39;9.03;;;4.57;;
19343;SDS011;9808;52.402;16.678;2022-11-18T10:47:24;9.87;;;4.83;;
19343;SDS011;9808;52.402;16.678;2022-11-18T10:49:53;9.90;;;4.80;;
19343;SDS011;9808;52.402;16.678;2022-11-18T10:52:22;11.67;;;5.07;;
19343;SDS011;9808;52.402;16.678;2022-11-18T10:55:04;8.80;;;3.90;;
19343;SDS011;9808;52.402;16.678;2022-11-18T10:57:53;6.87;;;3.70;;
19343;SDS011;9808;52.402;16.678;2022-11-18T11:00:40;8.67;;;4.03;;
19343;SDS011;9808;52.402;16.678;2022-11-18T11:03:41;8.77;;;4.17;;
19343;SDS011;9808;52.402;16.678;2022-11-18T11:08:49;7.20;;;3.73;;
19343;SDS011;9808;52.402;16.678;2022-11-18T11:11:26;9.07;;;3.83;;
19343;SDS011;9808;52.402;16.678;2022-11-18T11:14:16;8.83;;;3.97;;
19343;SDS011;9808;52.402;16.678;2022-11-18T11:16:51;9.10;;;3.57;;
19343;SDS011;9808;52.402;16.678;2022-11-18T11:19:42;9.00;;;3.70;;
19343;SDS011;9808;52.402;16.678;2022-11-18T11:22:17;10.03;;;3.80;;
19343;SDS011;9808;52.402;16.678;2022-11-18T11:24:44;7.83;;;4.10;;
19343;SDS011;9808;52.402;16.678;2022-11-18T11:27:28;7.37;;;3.83;;
19343;SDS011;9808;52.402;16.678;2022-11-18T11:30:20;8.03;;;3.70;;
19343;SDS011;9808;52.402;16.678;2022-11-18T11:39:01;9.27;;;4.30;;
19343;SDS011;9808;52.402;16.678;2022-11-18T11:45:03;10.57;;;4.80;;
19343;SDS011;9808;52.402;16.678;2022-11-18T11:47:43;12.60;;;5.03;;
19343;SDS011;9808;52.402;16.678;2022-11-18T11:50:27;9.30;;;4.10;;
19343;SDS011;9808;52.402;16.678;2022-11-18T11:53:50;10.57;;;5.03;;
19343;SDS011;9808;52.402;16.678;2022-11-18T11:59:16;10.33;;;5.00;;
19343;SDS011;9808;52.402;16.678;2022-11-18T12:07:50;12.33;;;5.33;;
19343;SDS011;9808;52.402;16.678;2022-11-18T12:13:33;19.97;;;6.20;;
19343;SDS011;9808;52.402;16.678;2022-11-18T12:18:42;10.17;;;4.50;;
19343;SDS011;9808;52.402;16.678;2022-11-18T12:26:44;10.87;;;4.17;;
19343;SDS011;9808;52.402;16.678;2022-11-18T12:31:45;10.00;;;3.87;;
19343;SDS011;9808;52.402;16.678;2022-11-18T12:34:30;9.77;;;4.03;;
19343;SDS011;9808;52.402;16.678;2022-11-18T12:37:36;7.77;;;3.50;;
19343;SDS011;9808;52.402;16.678;2022-11-18T12:42:32;11.83;;;4.07;;
19343;SDS011;9808;52.402;16.678;2022-11-18T12:45:46;8.03;;;3.83;;
19343;SDS011;9808;52.402;16.678;2022-11-18T12:50:56;7.20;;;3.37;;
19343;SDS011;9808;52.402;16.678;2022-11-18T12:53:41;8.60;;;3.93;;
19343;SDS011;9808;52.402;16.678;2022-11-18T12:58:45;9.43;;;3.37;;
19343;SDS011;9808;52.402;16.678;2022-11-18T13:01:19;8.87;;;3.80;;
19343;SDS011;9808;52.402;16.678;2022-11-18T13:04:16;9.80;;;3.67;;
19343;SDS011;9808;52.402;16.678;2022-11-18T13:06:47;10.00;;;3.57;;
19343;SDS011;9808;52.402;16.678;2022-11-18T13:09:25;8.83;;;4.07;;
19343;SDS011;9808;52.402;16.678;2022-11-18T13:11:56;8.77;;;4.07;;
19343;SDS011;9808;52.402;16.678;2022-11-18T13:22:53;8.20;;;4.00;;
19343;SDS011;9808;52.402;16.678;2022-11-18T13:25:40;8.23;;;3.97;;
19343;SDS011;9808;52.402;16.678;2022-11-18T13:30:58;15.67;;;5.53;;
19343;SDS011;9808;52.402;16.678;2022-11-18T13:33:44;11.40;;;4.83;;
19343;SDS011;9808;52.402;16.678;2022-11-18T13:36:20;13.70;;;5.27;;
19343;SDS011;9808;52.402;16.678;2022-11-18T13:38:55;7.23;;;3.60;;
19343;SDS011;9808;52.402;16.678;2022-11-18T13:41:24;9.03;;;4.77;;
19343;SDS011;9808;52.402;16.678;2022-11-18T13:44:10;9.27;;;4.03;;
19343;SDS011;9808;52.402;16.678;2022-11-18T13:46:38;7.83;;;3.70;;
19343;SDS011;9808;52.402;16.678;2022-11-18T13:49:09;7.73;;;3.83;;
19343;SDS011;9808;52.402;16.678;2022-11-18T13:51:41;8.70;;;4.30;;
19343;SDS011;9808;52.402;16.678;2022-11-18T13:54:10;11.23;;;4.13;;
19343;SDS011;9808;52.402;16.678;2022-11-18T13:56:40;9.87;;;4.43;;
19343;SDS011;9808;52.402;16.678;2022-11-18T13:59:12;13.80;;;4.53;;
19343;SDS011;9808;52.402;16.678;2022-11-18T14:01:44;8.23;;;3.97;;
19343;SDS011;9808;52.402;16.678;2022-11-18T14:04:19;6.17;;;3.20;;
19343;SDS011;9808;52.402;16.678;2022-11-18T14:06:48;9.40;;;4.17;;
19343;SDS011;9808;52.402;16.678;2022-11-18T14:15:10;6.80;;;3.10;;
19343;SDS011;9808;52.402;16.678;2022-11-18T14:18:16;7.50;;;3.40;;
19343;SDS011;9808;52.402;16.678;2022-11-18T14:20:53;7.57;;;3.80;;
19343;SDS011;9808;52.402;16.678;2022-11-18T14:23:27;8.00;;;4.00;;
19343;SDS011;9808;52.402;16.678;2022-11-18T14:26:07;7.73;;;3.37;;
19343;SDS011;9808;52.402;16.678;2022-11-18T14:28:35;10.43;;;3.73;;
19343;SDS011;9808;52.402;16.678;2022-11-18T14:36:37;11.53;;;4.30;;
19343;SDS011;9808;52.402;16.678;2022-11-18T14:39:18;11.57;;;3.80;;
19343;SDS011;9808;52.402;16.678;2022-11-18T14:41:52;8.07;;;4.03;;
19343;SDS011;9808;52.402;16.678;2022-11-18T14:44:20;9.77;;;3.70;;
19343;SDS011;9808;52.402;16.678;2022-11-18T14:46:59;12.63;;;4.43;;
19343;SDS011;9808;52.402;16.678;2022-11-18T14:49:29;8.20;;;3.70;;
19343;SDS011;9808;52.402;16.678;2022-11-18T14:52:00;12.00;;;3.80;;
19343;SDS011;9808;52.402;16.678;2022-11-18T14:54:28;11.00;;;4.40;;
19343;SDS011;9808;52.402;16.678;2022-11-18T14:56:56;9.40;;;4.27;;
19343;SDS011;9808;52.402;16.678;2022-11-18T14:59:26;12.57;;;4.73;;
19343;SDS011;9808;52.402;16.678;2022-11-18T15:01:53;8.77;;;4.00;;
19343;SDS011;9808;52.402;16.678;2022-11-18T15:04:21;16.00;;;6.17;;
19343;SDS011;9808;52.402;16.678;2022-11-18T15:06:48;14.57;;;6.77;;
19343;SDS011;9808;52.402;16.678;2022-11-18T15:09:15;16.30;;;7.00;;
19343;SDS011;9808;52.402;16.678;2022-11-18T15:11:42;11.20;;;5.17;;
19343;SDS011;9808;52.402;16.678;2022-11-18T15:14:09;11.27;;;4.77;;
19343;SDS011;9808;52.402;16.678;2022-11-18T15:16:36;8.67;;;4.43;;
19343;SDS011;9808;52.402;16.678;2022-11-18T15:19:04;12.73;;;4.97;;
19343;SDS011;9808;52.402;16.678;2022-11-18T15:21:31;12.47;;;4.70;;
19343;SDS011;9808;52.402;16.678;2022-11-18T15:23:58;8.97;;;4.27;;
19343;SDS011;9808;52.402;16.678;2022-11-18T15:26:31;9.53;;;4.00;;
19343;SDS011;9808;52.402;16.678;2022-11-18T15:29:01;12.70;;;4.70;;
19343;SDS011;9808;52.402;16.678;2022-11-18T15:31:27;12.10;;;4.67;;
19343;SDS011;9808;52.402;16.678;2022-11-18T15:33:54;13.73;;;6.13;;
19343;SDS011;9808;52.402;16.678;2022-11-18T15:36:27;14.03;;;6.53;;
19343;SDS011;9808;52.402;16.678;2022-11-18T15:38:54;20.50;;;7.37;;
19343;SDS011;9808;52.402;16.678;2022-11-18T15:41:25;19.67;;;7.20;;
19343;SDS011;9808;52.402;16.678;2022-11-18T15:43:55;16.97;;;7.13;;
19343;SDS011;9808;52.402;16.678;2022-11-18T15:46:24;16.10;;;7.13;;
19343;SDS011;9808;52.402;16.678;2022-11-18T15:48:53;15.73;;;7.23;;
19343;SDS011;9808;52.402;16.678;2022-11-18T15:51:21;22.40;;;8.10;;
19343;SDS011;9808;52.402;16.678;2022-11-18T15:53:49;20.40;;;8.20;;
19343;SDS011;9808;52.402;16.678;2022-11-18T15:58:52;16.90;;;6.97;;
19343;SDS011;9808;52.402;16.678;2022-11-18T16:01:24;17.87;;;6.90;;
19343;SDS011;9808;52.402;16.678;2022-11-18T16:03:53;14.53;;;6.13;;
19343;SDS011;9808;52.402;16.678;2022-11-18T16:06:20;15.93;;;6.27;;
19343;SDS011;9808;52.402;16.678;2022-11-18T16:08:47;18.43;;;5.90;;
19343;SDS011;9808;52.402;16.678;2022-11-18T16:11:21;14.30;;;5.77;;
19343;SDS011;9808;52.402;16.678;2022-11-18T16:14:07;16.00;;;5.93;;
19343;SDS011;9808;52.402;16.678;2022-11-18T16:16:36;16.97;;;5.93;;
19343;SDS011;9808;52.402;16.678;2022-11-18T16:19:05;19.40;;;6.73;;
19343;SDS011;9808;52.402;16.678;2022-11-18T16:21:34;19.07;;;7.20;;
19343;SDS011;9808;52.402;16.678;2022-11-18T16:24:04;24.37;;;8.13;;
19343;SDS011;9808;52.402;16.678;2022-11-18T16:26:33;24.83;;;9.83;;
19343;SDS011;9808;52.402;16.678;2022-11-18T16:29:00;21.03;;;9.23;;
19343;SDS011;9808;52.402;16.678;2022-11-18T16:31:27;23.70;;;9.37;;
19343;SDS011;9808;52.402;16.678;2022-11-18T16:34:10;26.03;;;9.33;;
19343;SDS011;9808;52.402;16.678;2022-11-18T16:36:39;22.83;;;8.03;;
19343;SDS011;9808;52.402;16.678;2022-11-18T16:39:08;20.37;;;7.87;;
19343;SDS011;9808;52.402;16.678;2022-11-18T16:41:36;17.73;;;7.40;;
19343;SDS011;9808;52.402;16.678;2022-11-18T16:44:05;20.03;;;8.27;;
19343;SDS011;9808;52.402;16.678;2022-11-18T16:46:34;21.30;;;8.37;;
19343;SDS011;9808;52.402;16.678;2022-11-18T16:49:04;19.57;;;7.83;;
19343;SDS011;9808;52.402;16.678;2022-11-18T16:51:32;20.20;;;8.23;;